createdAt,value
2019-05-23T00:15:19.486Z,2.50
2019-05-23T00:45:22.101Z,2.02
2019-05-23T01:15:24.710Z,2.42
2019-05-23T01:45:27.344Z,2.70
2019-05-23T02:15:29.952Z,2.35
2019-05-23T02:45:32.613Z,2.95
2019-05-23T03:15:35.393Z,1.32
2019-05-23T03:45:39.771Z,3.65
2019-05-23T04:15:42.523Z,3.00
2019-05-23T04:45:45.157Z,2.15
2019-05-23T05:15:47.750Z,2.25
2019-05-23T05:45:50.379Z,4.72
2019-05-23T06:15:53.026Z,3.20
2019-05-23T06:45:55.636Z,4.60
2019-05-23T07:15:58.331Z,1.87
2019-05-23T07:46:01.007Z,3.17
2019-05-23T08:16:03.782Z,3.22
2019-05-23T08:46:06.603Z,2.75
2019-05-23T09:16:09.201Z,3.80
2019-05-23T09:46:12.186Z,3.72
2019-05-23T10:16:14.812Z,4.42
2019-05-23T10:46:17.421Z,3.30
2019-05-23T11:16:20.030Z,2.83
2019-05-23T11:46:22.625Z,2.67
2019-05-23T12:16:25.305Z,2.80
2019-05-23T12:46:27.929Z,2.27
2019-05-23T13:16:30.522Z,1.70
2019-05-23T13:46:33.177Z,1.60
2019-05-23T14:16:35.857Z,1.25
2019-05-23T14:46:38.503Z,1.42
2019-05-23T15:16:41.147Z,0.95
2019-05-23T15:46:43.975Z,1.07
2019-05-23T16:16:46.719Z,0.85
2019-05-23T16:46:49.408Z,1.30
2019-05-23T17:16:52.107Z,1.05
2019-05-23T17:46:54.838Z,1.60
2019-05-23T18:16:57.531Z,1.75
2019-05-23T18:47:00.196Z,2.30
2019-05-23T19:17:02.833Z,3.50
2019-05-23T19:47:05.547Z,4.22
2019-05-23T20:17:09.472Z,6.85
2019-05-23T20:47:12.145Z,9.00
2019-05-23T21:17:14.875Z,7.42
2019-05-23T21:47:17.548Z,5.33
2019-05-23T22:17:20.153Z,8.50
2019-05-23T22:47:22.788Z,9.65
2019-05-23T23:17:25.429Z,10.75
2019-05-23T23:47:28.034Z,17.85
